Time;durP1;ratioP1;P1;durP2;ratioP2;P2;SDS_P1;SDS_P2;PMS_P1;PMS_P2;Temp;Humidity;BMP_temperature;BMP_pressure;BME280_temperature;BME280_humidity;BME280_pressure;Samples;Min_cycle;Max_cycle;Signal;HPM_P1;HPM_P2
2021/08/23 00:01:55;;;;;;;3.83;2.47;;;;;;;17.47;100.00;101305.91;4963020;28;20047;-68
2021/08/23 00:04:20;;;;;;;6.20;2.10;;;;;;;17.50;100.00;101305.16;4969674;28;20041;-67
2021/08/23 00:06:46;;;;;;;4.60;2.63;;;;;;;17.45;100.00;101302.78;4971715;28;20070;-67
2021/08/23 00:09:11;;;;;;;4.53;2.10;;;;;;;17.46;100.00;101301.59;4972586;28;20034;-67
2021/08/23 00:11:36;;;;;;;4.10;2.22;;;;;;;17.42;100.00;101298.09;4960046;28;20073;-67
2021/08/23 00:14:02;;;;;;;6.32;2.33;;;;;;;17.42;100.00;101295.38;4971974;28;20031;-68
2021/08/23 00:16:28;;;;;;;4.50;2.30;;;;;;;17.44;100.00;101300.44;4972292;28;20046;-67
2021/08/23 00:18:53;;;;;;;4.18;2.38;;;;;;;17.40;100.00;101297.69;4966276;28;20125;-68
2021/08/23 00:21:24;;;;;;;3.25;2.13;;;;;;;17.42;100.00;101297.34;4971540;28;20034;-67
2021/08/23 00:23:52;;;;;;;4.10;2.08;;;;;;;17.35;100.00;101295.34;4971492;28;20411;-67
2021/08/23 00:26:18;;;;;;;4.22;2.28;;;;;;;17.37;100.00;101287.59;4965944;28;20050;-67
2021/08/23 00:28:43;;;;;;;3.20;1.95;;;;;;;17.38;100.00;101300.03;4968757;28;20525;-67
2021/08/23 00:31:09;;;;;;;4.97;2.50;;;;;;;17.38;100.00;101293.81;4971701;28;20457;-67
2021/08/23 00:33:35;;;;;;;4.40;2.47;;;;;;;17.35;100.00;101297.28;4972104;28;20050;-68
2021/08/23 00:36:00;;;;;;;3.05;1.77;;;;;;;17.37;100.00;101293.03;4969768;28;20113;-68
2021/08/23 00:38:26;;;;;;;4.47;2.30;;;;;;;17.38;100.00;101300.03;4972284;28;20101;-67
2021/08/23 00:40:51;;;;;;;3.67;2.13;;;;;;;17.37;100.00;101305.84;4971329;28;20109;-68
2021/08/23 00:43:16;;;;;;;3.45;2.13;;;;;;;17.37;100.00;101298.47;4971502;28;20043;-68
2021/08/23 00:45:42;;;;;;;3.30;2.22;;;;;;;17.39;100.00;101307.03;4971134;28;20035;-68
2021/08/23 00:48:09;;;;;;;4.07;2.30;;;;;;;17.40;100.00;101303.16;4967690;28;20050;-67
2021/08/23 00:50:35;;;;;;;4.15;2.30;;;;;;;17.41;100.00;101299.28;4971573;28;20035;-68
2021/08/23 00:53:02;;;;;;;2.80;1.98;;;;;;;17.41;100.00;101302.00;4965078;28;20046;-67
2021/08/23 00:55:28;;;;;;;5.53;2.50;;;;;;;17.41;100.00;101299.28;4969022;28;20077;-67
2021/08/23 00:57:54;;;;;;;4.35;2.25;;;;;;;17.41;100.00;101298.47;4971576;28;20093;-68
2021/08/23 01:00:19;;;;;;;4.72;2.25;;;;;;;17.40;100.00;101296.94;4971461;28;20034;-67
2021/08/23 01:03:12;;;;;;;4.13;2.08;;;;;;;17.38;100.00;101294.56;4967881;28;20027;-68
2021/08/23 01:05:38;;;;;;;3.15;1.88;;;;;;;17.41;100.00;101296.53;4970032;28;20042;-68
2021/08/23 01:08:10;;;;;;;3.28;1.90;;;;;;;17.43;100.00;101299.66;4971325;28;20496;-67
2021/08/23 01:10:42;;;;;;;;;;;;;;;17.27;100.00;101307.38;4962918;28;20491;-67
2021/08/23 01:13:08;;;;;;;4.78;1.70;;;;;;;17.44;100.00;101297.72;4968549;28;20302;-68
2021/08/23 01:15:35;;;;;;;3.10;1.88;;;;;;;17.41;100.00;101299.28;4971070;28;20030;-67
2021/08/23 01:18:02;;;;;;;2.55;1.80;;;;;;;17.36;100.00;101304.31;4970614;28;20522;-68
2021/08/23 01:20:27;;;;;;;3.70;2.00;;;;;;;17.43;100.00;101302.38;4961173;28;20049;-68
2021/08/23 01:22:54;;;;;;;2.90;1.60;;;;;;;17.38;100.00;101308.19;4970115;28;20035;-68
2021/08/23 01:25:35;;;;;;;4.60;1.60;;;;;;;17.33;100.00;101305.84;4971241;28;20062;-68
2021/08/23 01:28:40;;;;;;;3.00;1.15;;;;;;;17.31;100.00;101310.13;4967776;28;20530;-68
2021/08/23 01:31:12;;;;;;;2.92;1.55;;;;;;;17.33;100.00;101300.41;4970022;28;20439;-67
2021/08/23 01:33:38;;;;;;;2.72;1.30;;;;;;;17.32;100.00;101308.97;4969813;28;20047;-67
2021/08/23 01:36:03;;;;;;;1.40;1.15;;;;;;;17.35;100.00;101317.16;4971055;28;20419;-68
2021/08/23 01:38:30;;;;;;;1.40;1.02;;;;;;;17.35;100.00;101308.97;4971167;28;20139;-68
2021/08/23 01:40:59;;;;;;;2.72;1.10;;;;;;;17.40;100.00;101314.03;4969650;28;20035;-68
2021/08/23 01:43:25;;;;;;;2.35;0.82;;;;;;;17.35;100.00;101308.19;4967014;28;20027;-67
2021/08/23 01:45:51;;;;;;;1.25;0.88;;;;;;;17.31;100.00;101310.13;4970784;28;20046;-67
2021/08/23 01:48:16;;;;;;;1.40;1.08;;;;;;;17.29;100.00;101313.22;4971119;28;20074;-68
2021/08/23 01:50:42;;;;;;;1.42;1.00;;;;;;;17.32;100.00;101317.13;4966490;28;20042;-68
2021/08/23 01:53:07;;;;;;;2.88;0.93;;;;;;;17.31;100.00;101316.34;4995311;23;20530;-67
2021/08/23 01:55:32;;;;;;;1.20;0.90;;;;;;;17.34;100.00;101328.44;4990326;28;20041;-69
2021/08/23 01:57:58;;;;;;;1.58;0.82;;;;;;;17.33;100.00;101319.47;4972741;28;20049;-70
2021/08/23 02:00:23;;;;;;;2.08;0.93;;;;;;;17.37;100.00;101322.19;4993741;28;20038;-70
2021/08/23 02:02:49;;;;;;;1.20;0.80;;;;;;;17.39;100.00;101325.31;4975216;28;20031;-70
2021/08/23 02:05:14;;;;;;;1.08;0.88;;;;;;;17.37;100.00;101330.38;4993850;28;20030;-70
2021/08/23 02:07:39;;;;;;;0.73;0.60;;;;;;;17.36;100.00;101326.88;4992983;28;20378;-70
2021/08/23 02:10:06;;;;;;;0.88;0.80;;;;;;;17.38;100.00;101327.25;4993301;28;20045;-70
2021/08/23 02:12:31;;;;;;;1.10;0.75;;;;;;;17.33;100.00;101327.63;4976090;28;20077;-70
2021/08/23 02:14:56;;;;;;;1.08;0.70;;;;;;;17.34;100.00;101329.22;4993983;28;20050;-70
2021/08/23 02:17:22;;;;;;;0.85;0.85;;;;;;;17.34;100.00;101331.94;4994378;28;20118;-70
2021/08/23 02:19:47;;;;;;;1.70;0.88;;;;;;;17.34;100.00;101339.31;4992859;28;20049;-70
2021/08/23 02:22:13;;;;;;;1.45;0.80;;;;;;;17.33;100.00;101335.81;4992921;28;20053;-70
2021/08/23 02:24:39;;;;;;;0.82;0.63;;;;;;;17.40;100.00;101333.09;4976663;28;20117;-70
2021/08/23 02:27:05;;;;;;;1.27;0.80;;;;;;;17.39;100.00;101337.00;4993215;28;20109;-68
2021/08/23 02:29:31;;;;;;;1.80;0.80;;;;;;;17.43;100.00;101339.72;4982107;28;20042;-68
2021/08/23 02:31:56;;;;;;;2.20;0.90;;;;;;;17.33;100.00;101346.69;4993003;28;20042;-68
2021/08/23 02:34:22;;;;;;;1.23;0.68;;;;;;;17.31;100.00;101338.13;4993065;28;20065;-69
2021/08/23 02:36:47;;;;;;;0.65;0.60;;;;;;;17.31;100.00;101343.56;4991937;28;20046;-70
2021/08/23 02:39:13;;;;;;;2.10;0.60;;;;;;;17.26;100.00;101343.97;4993856;28;20034;-70
2021/08/23 02:41:38;;;;;;;3.10;0.70;;;;;;;17.28;100.00;101347.09;4992687;28;20069;-70
2021/08/23 02:44:04;;;;;;;1.13;0.60;;;;;;;17.26;100.00;101345.91;4992295;28;20376;-70
2021/08/23 02:46:30;;;;;;;1.73;0.57;;;;;;;17.20;100.00;101350.94;4992332;28;20041;-68
2021/08/23 02:48:55;;;;;;;0.50;0.47;;;;;;;17.17;100.00;101348.94;4993815;28;20042;-68
2021/08/23 02:51:22;;;;;;;1.63;0.73;;;;;;;17.17;100.00;101348.94;4993008;28;20030;-68
2021/08/23 02:53:47;;;;;;;0.98;0.50;;;;;;;17.10;100.00;101352.44;4992481;28;20073;-68
2021/08/23 02:56:13;;;;;;;1.90;0.70;;;;;;;17.06;100.00;101350.84;4993058;28;20076;-68
2021/08/23 02:58:39;;;;;;;0.80;0.70;;;;;;;17.05;100.00;101354.75;4993585;28;20391;-68
2021/08/23 03:01:04;;;;;;;1.85;0.60;;;;;;;17.07;100.00;101347.00;4992319;28;20042;-68
2021/08/23 03:03:30;;;;;;;1.40;0.60;;;;;;;17.03;100.00;101354.34;4992523;28;20035;-68
2021/08/23 03:05:55;;;;;;;1.08;0.73;;;;;;;17.06;100.00;101354.38;4992486;28;20042;-68
2021/08/23 03:08:21;;;;;;;0.68;0.47;;;;;;;17.03;100.00;101359.78;4975448;28;20045;-68
2021/08/23 03:10:46;;;;;;;1.38;0.60;;;;;;;17.03;100.00;101370.69;4992676;28;20038;-68
2021/08/23 03:13:12;;;;;;;0.80;0.73;;;;;;;17.00;100.00;101365.97;4991197;28;20034;-68
2021/08/23 03:15:37;;;;;;;0.85;0.85;;;;;;;16.93;100.00;101366.75;4993164;28;20066;-68
2021/08/23 03:18:03;;;;;;;1.30;0.60;;;;;;;16.95;100.00;101367.13;4993247;28;20038;-68
2021/08/23 03:20:28;;;;;;;1.45;0.68;;;;;;;16.99;100.00;101359.75;4991916;28;20033;-68
2021/08/23 03:22:54;;;;;;;3.10;0.60;;;;;;;17.03;100.00;101365.25;4991478;28;20041;-68
2021/08/23 03:25:19;;;;;;;0.60;0.50;;;;;;;16.93;100.00;101368.66;4993079;28;20129;-68
2021/08/23 03:27:45;;;;;;;0.77;0.60;;;;;;;16.95;100.00;101371.78;4992492;28;20120;-68
2021/08/23 03:30:11;;;;;;;1.70;0.80;;;;;;;16.99;100.00;101378.03;4992384;28;20034;-68
2021/08/23 03:32:36;;;;;;;4.38;0.57;;;;;;;17.02;100.00;101375.34;4988201;28;20466;-68
2021/08/23 03:35:03;;;;;;;3.90;0.70;;;;;;;17.04;100.00;101389.34;4990658;28;20034;-68
2021/08/23 03:37:29;;;;;;;0.65;0.45;;;;;;;17.00;100.00;101383.09;4972852;28;20039;-68
2021/08/23 03:39:54;;;;;;;2.20;0.95;;;;;;;16.94;100.00;101383.81;4990751;28;20040;-68
2021/08/23 03:42:20;;;;;;;1.20;0.73;;;;;;;16.91;100.00;101388.09;4989086;28;20054;-68
2021/08/23 03:44:45;;;;;;;1.17;0.50;;;;;;;16.96;100.00;101393.19;4973018;28;20045;-68
2021/08/23 03:47:10;;;;;;;1.02;0.65;;;;;;;16.92;100.00;101380.69;4989266;28;20426;-68
2021/08/23 03:49:36;;;;;;;1.08;0.73;;;;;;;16.94;100.00;101384.63;4990972;28;20038;-68
2021/08/23 03:52:02;;;;;;;0.65;0.55;;;;;;;16.94;100.00;101375.66;4974176;28;20127;-68
2021/08/23 03:54:27;;;;;;;1.25;0.60;;;;;;;16.88;100.00;101393.50;4991541;28;20445;-68
2021/08/23 03:56:53;;;;;;;0.95;0.70;;;;;;;16.85;100.00;101402.44;4991268;28;20391;-68
2021/08/23 03:59:18;;;;;;;0.70;0.50;;;;;;;16.83;100.00;101397.38;4992132;28;20045;-68
2021/08/23 04:01:44;;;;;;;1.55;0.88;;;;;;;16.80;100.00;101400.09;4979419;28;20038;-68
2021/08/23 04:04:09;;;;;;;0.90;0.50;;;;;;;16.75;100.00;101400.41;4988244;28;20518;-68
2021/08/23 04:06:35;;;;;;;1.08;0.80;;;;;;;16.74;100.00;101407.78;4987780;28;20040;-68
2021/08/23 04:09:01;;;;;;;0.80;0.63;;;;;;;16.76;100.00;101407.44;4989055;28;20042;-68
2021/08/23 04:11:26;;;;;;;0.85;0.60;;;;;;;16.74;100.00;101407.78;4960737;28;20069;-68
2021/08/23 04:13:53;;;;;;;3.15;0.70;;;;;;;16.64;100.00;101407.72;4990876;28;20031;-68
2021/08/23 04:16:18;;;;;;;3.20;0.88;;;;;;;16.67;100.00;101412.41;4991265;28;20078;-68
2021/08/23 04:18:44;;;;;;;1.35;0.70;;;;;;;16.66;100.00;101419.00;4991943;28;20459;-68
2021/08/23 04:21:10;;;;;;;1.42;0.88;;;;;;;16.63;100.00;101417.81;4990096;28;20149;-68
2021/08/23 04:23:35;;;;;;;1.15;0.60;;;;;;;16.65;100.00;101425.59;4990099;28;20117;-68
2021/08/23 04:26:01;;;;;;;1.25;0.75;;;;;;;16.64;100.00;101426.75;4991496;28;20034;-68
2021/08/23 04:28:26;;;;;;;1.63;0.65;;;;;;;16.62;100.00;101429.06;4991177;28;20042;-68
2021/08/23 04:30:52;;;;;;;1.90;0.80;;;;;;;16.56;100.00;101431.38;4984225;28;20042;-68
2021/08/23 04:33:17;;;;;;;1.45;0.80;;;;;;;16.59;100.00;101432.56;4990244;28;20093;-68
2021/08/23 04:35:43;;;;;;;1.38;0.88;;;;;;;16.63;100.00;101446.94;4990834;28;20038;-68
2021/08/23 04:38:09;;;;;;;1.30;0.73;;;;;;;16.60;100.00;101439.56;4990689;28;20041;-68
2021/08/23 04:40:35;;;;;;;1.42;0.80;;;;;;;16.63;100.00;101433.34;4991018;28;20042;-68
2021/08/23 04:43:00;;;;;;;1.65;0.73;;;;;;;16.59;100.00;101435.28;4984087;28;20043;-68
2021/08/23 04:45:27;;;;;;;1.33;0.80;;;;;;;16.61;100.00;101438.38;4990154;28;20034;-68
2021/08/23 04:47:52;;;;;;;1.20;0.90;;;;;;;16.64;100.00;101449.31;4988591;28;20045;-68
2021/08/23 04:50:18;;;;;;;1.23;0.60;;;;;;;16.60;100.00;101447.72;4989498;28;20042;-68
2021/08/23 04:52:44;;;;;;;1.50;1.40;;;;;;;16.60;100.00;101450.44;4986627;28;20026;-69
2021/08/23 04:55:11;;;;;;;2.13;0.75;;;;;;;16.62;100.00;101456.28;4971642;28;20034;-68
2021/08/23 04:57:37;;;;;;;2.88;0.90;;;;;;;16.75;100.00;101460.25;4988712;28;20034;-68
2021/08/23 05:00:10;;;;;;;1.02;0.90;;;;;;;16.76;100.00;101464.56;4967236;28;20569;-68
2021/08/23 05:02:36;;;;;;;3.70;1.05;;;;;;;16.75;100.00;101461.06;4986671;28;20030;-69
2021/08/23 05:05:01;;;;;;;1.17;0.88;;;;;;;16.80;100.00;101471.59;4973278;28;20022;-69
2021/08/23 05:07:27;;;;;;;1.85;0.73;;;;;;;16.85;100.00;101467.75;4971805;28;20034;-68
2021/08/23 05:09:52;;;;;;;1.40;0.82;;;;;;;16.82;100.00;101473.94;4989435;28;20030;-68
2021/08/23 05:12:18;;;;;;;3.50;0.90;;;;;;;16.72;100.00;101480.88;4984175;28;20039;-68
2021/08/23 05:14:43;;;;;;;1.52;0.80;;;;;;;16.73;100.00;101484.34;4989195;28;20042;-68
2021/08/23 05:17:08;;;;;;;1.38;0.85;;;;;;;16.82;100.00;101496.47;4990051;28;20031;-68
2021/08/23 05:19:34;;;;;;;1.25;0.77;;;;;;;16.83;100.00;101499.97;4986789;28;20034;-68
2021/08/23 05:21:59;;;;;;;1.58;1.05;;;;;;;16.87;100.00;101495.34;4984965;28;20096;-68
2021/08/23 05:24:25;;;;;;;1.70;0.90;;;;;;;16.90;100.00;101500.81;4987864;28;20041;-68
2021/08/23 05:26:50;;;;;;;2.10;1.20;;;;;;;16.97;100.00;101497.38;4989418;28;20125;-68
2021/08/23 05:29:16;;;;;;;1.90;0.82;;;;;;;17.00;100.00;101500.13;4989529;28;20033;-68
2021/08/23 05:31:42;;;;;;;4.20;1.00;;;;;;;17.05;100.00;101499.00;4954203;28;20042;-68
2021/08/23 05:34:07;;;;;;;1.10;0.88;;;;;;;17.04;100.00;101500.16;4988590;28;20085;-69
2021/08/23 05:36:33;;;;;;;1.42;1.02;;;;;;;17.09;100.00;101500.56;4990568;28;20034;-69
2021/08/23 05:38:58;;;;;;;1.10;0.80;;;;;;;17.17;100.00;101514.25;4991648;28;20049;-69
2021/08/23 05:41:24;;;;;;;4.55;0.85;;;;;;;17.30;100.00;101510.84;4990684;28;20113;-68
2021/08/23 05:43:50;;;;;;;2.80;1.00;;;;;;;17.31;100.00;101511.63;4992468;28;20414;-68
2021/08/23 05:46:23;;;;;;;1.95;0.70;;;;;;;17.33;100.00;101514.75;4991003;28;20045;-68
2021/08/23 05:48:49;;;;;;;2.22;1.02;;;;;;;17.40;100.00;101512.84;4993438;28;20097;-68
2021/08/23 05:51:15;;;;;;;1.55;0.95;;;;;;;17.39;100.00;101513.22;4991802;28;20046;-68
2021/08/23 05:53:42;;;;;;;1.55;0.85;;;;;;;17.39;100.00;101524.13;4992327;28;20089;-68
2021/08/23 05:56:08;;;;;;;1.30;0.90;;;;;;;17.34;100.00;101524.50;4991839;28;20038;-68
2021/08/23 05:58:33;;;;;;;1.42;1.10;;;;;;;17.45;100.00;101517.94;4971827;28;20026;-68
2021/08/23 06:00:59;;;;;;;1.42;0.88;;;;;;;17.51;100.00;101521.91;4961468;28;20510;-68
2021/08/23 06:03:24;;;;;;;2.47;0.80;;;;;;;17.61;100.00;101523.94;4991223;28;20044;-68
2021/08/23 06:05:50;;;;;;;2.15;0.80;;;;;;;17.69;100.00;101517.31;4992895;28;20026;-68
2021/08/23 06:08:15;;;;;;;1.88;1.00;;;;;;;17.75;100.00;101523.97;4991867;28;20034;-68
2021/08/23 06:10:41;;;;;;;2.35;1.02;;;;;;;17.86;100.00;101533.00;4991684;28;20042;-68
2021/08/23 06:13:06;;;;;;;2.00;0.75;;;;;;;17.94;100.00;101531.09;4991009;28;20101;-68
2021/08/23 06:15:32;;;;;;;1.95;0.85;;;;;;;18.04;100.00;101527.63;4973331;28;20042;-68
2021/08/23 06:17:57;;;;;;;1.20;0.73;;;;;;;18.11;100.00;101527.66;4992524;28;20069;-68
2021/08/23 06:20:23;;;;;;;1.88;0.93;;;;;;;18.23;100.00;101529.25;4993074;28;20053;-68
2021/08/23 06:22:50;;;;;;;1.85;0.88;;;;;;;18.35;100.00;101537.84;4990908;28;20035;-68
2021/08/23 06:25:15;;;;;;;4.65;1.15;;;;;;;18.45;100.00;101539.06;4991174;28;20125;-68
2021/08/23 06:27:41;;;;;;;1.30;0.68;;;;;;;18.49;100.00;101542.59;4991638;28;20121;-68
2021/08/23 06:30:08;;;;;;;1.25;0.85;;;;;;;18.58;100.00;101548.47;4991014;28;20033;-68
2021/08/23 06:32:34;;;;;;;2.13;0.88;;;;;;;18.67;100.00;101538.75;4973682;28;20014;-68
2021/08/23 06:35:00;;;;;;;1.83;0.80;;;;;;;18.76;100.00;101543.81;4969368;28;20509;-68
2021/08/23 06:37:25;;;;;;;2.83;0.80;;;;;;;18.81;100.00;101552.41;4984365;28;20042;-68
2021/08/23 06:39:50;;;;;;;1.67;0.77;;;;;;;19.00;100.00;101554.00;4991599;28;20062;-68
2021/08/23 06:42:16;;;;;;;1.40;0.98;;;;;;;19.13;100.00;101555.16;4990664;28;20042;-68
2021/08/23 06:44:41;;;;;;;1.45;1.08;;;;;;;19.26;100.00;101556.31;4991182;28;20046;-68
2021/08/23 06:47:07;;;;;;;3.42;0.60;;;;;;;19.37;100.00;101565.34;4980961;28;20412;-68
2021/08/23 06:49:32;;;;;;;0.98;0.70;;;;;;;19.53;100.00;101562.19;4987131;28;20046;-68
2021/08/23 06:51:58;;;;;;;4.25;0.98;;;;;;;19.65;100.00;101557.09;4986581;28;20022;-68
2021/08/23 06:54:23;;;;;;;0.88;0.70;;;;;;;19.64;100.00;101571.94;4973183;28;20041;-68
2021/08/23 06:56:49;;;;;;;5.03;1.00;;;;;;;19.73;100.00;101572.28;4991686;28;20041;-68
2021/08/23 06:59:15;;;;;;;0.90;0.70;;;;;;;19.80;100.00;101582.44;4991062;28;20026;-68
2021/08/23 07:01:40;;;;;;;1.10;0.52;;;;;;;19.89;100.00;101585.53;4989895;28;21223;-68
2021/08/23 07:04:08;;;;;;;2.55;0.70;;;;;;;20.03;100.00;101590.19;4991018;28;20046;-68
2021/08/23 07:06:34;;;;;;;1.23;0.70;;;;;;;20.16;100.00;101592.09;4992425;28;20042;-69
2021/08/23 07:08:59;;;;;;;1.15;0.68;;;;;;;20.32;100.00;101597.16;4992884;28;20093;-68
2021/08/23 07:11:24;;;;;;;2.20;0.63;;;;;;;20.46;100.00;101592.38;4990824;28;20034;-68
2021/08/23 07:13:50;;;;;;;0.80;0.40;;;;;;;20.61;100.00;101588.38;4991276;28;20049;-68
2021/08/23 07:16:15;;;;;;;1.75;0.55;;;;;;;20.72;100.00;101602.00;4992322;28;20033;-68
2021/08/23 07:18:41;;;;;;;0.98;0.60;;;;;;;20.79;97.57;101601.19;4991606;28;20675;-69
2021/08/23 07:21:06;;;;;;;1.63;0.90;;;;;;;20.83;96.87;101599.22;4974359;28;20034;-68
2021/08/23 07:23:32;;;;;;;1.08;0.52;;;;;;;20.85;94.92;101599.59;4974742;28;20039;-68
2021/08/23 07:25:58;;;;;;;0.88;0.40;;;;;;;20.83;95.48;101613.69;4992748;28;20089;-69
2021/08/23 07:28:24;;;;;;;1.60;0.80;;;;;;;20.85;95.76;101608.56;4992524;28;20121;-68
2021/08/23 07:30:49;;;;;;;1.33;0.55;;;;;;;20.94;96.08;101606.19;4991353;28;20145;-68
2021/08/23 07:33:14;;;;;;;0.90;0.60;;;;;;;21.06;94.00;101613.94;4992281;28;20475;-69
2021/08/23 07:35:40;;;;;;;0.77;0.60;;;;;;;21.09;91.43;101612.38;4992080;28;20038;-69
2021/08/23 07:38:05;;;;;;;1.17;0.90;;;;;;;21.16;89.58;101613.09;4987538;28;20188;-68
2021/08/23 07:40:32;;;;;;;0.68;0.40;;;;;;;21.20;90.70;101618.53;4991521;28;20041;-69
2021/08/23 07:42:58;;;;;;;2.15;0.60;;;;;;;21.18;89.92;101621.69;4972993;28;20442;-69
2021/08/23 07:45:23;;;;;;;2.10;0.47;;;;;;;21.12;88.67;101622.50;4991485;28;20034;-69
2021/08/23 07:47:49;;;;;;;0.70;0.40;;;;;;;21.25;91.39;101629.84;4989443;28;20034;-69
2021/08/23 07:50:15;;;;;;;0.90;0.52;;;;;;;21.37;91.34;101626.63;4974105;28;20045;-69
2021/08/23 07:52:41;;;;;;;1.85;0.50;;;;;;;21.52;90.35;101641.00;4977315;23;20520;-68
2021/08/23 07:55:08;;;;;;;0.73;0.47;;;;;;;21.60;86.29;101631.53;4984582;28;20038;-69
2021/08/23 07:57:50;;;;;;;0.75;0.47;;;;;;;21.61;86.62;101629.56;4988432;28;20038;-68
2021/08/23 08:00:17;;;;;;;1.52;0.57;;;;;;;21.61;87.34;101633.06;4992645;28;20390;-68
2021/08/23 08:02:43;;;;;;;2.33;0.40;;;;;;;21.66;87.25;101629.88;5001370;28;20042;-68
2021/08/23 08:05:09;;;;;;;0.60;0.50;;;;;;;21.83;88.44;101641.91;4997885;28;20156;-68
2021/08/23 08:07:35;;;;;;;1.85;0.43;;;;;;;21.94;86.78;101639.84;4994572;28;20045;-66
2021/08/23 08:10:01;;;;;;;1.25;0.50;;;;;;;22.13;87.33;101637.28;4992792;28;20022;-66
2021/08/23 08:12:26;;;;;;;1.70;0.38;;;;;;;22.31;85.25;101648.84;4993241;28;20450;-66
2021/08/23 08:14:54;;;;;;;0.40;0.30;;;;;;;22.41;80.81;101641.66;4993715;28;20494;-66
2021/08/23 08:17:20;;;;;;;0.40;0.20;;;;;;;22.52;82.56;101649.75;4995953;28;20046;-66
2021/08/23 08:19:46;;;;;;;1.00;0.40;;;;;;;22.60;81.88;101663.03;4993446;28;20250;-66
2021/08/23 08:22:13;;;;;;;0.20;0.17;;;;;;;22.67;80.59;101648.41;4994581;28;20101;-66
2021/08/23 08:24:38;;;;;;;0.57;0.50;;;;;;;22.77;78.50;101670.25;4995639;28;20054;-66
2021/08/23 08:27:04;;;;;;;1.00;0.40;;;;;;;22.84;75.45;101666.66;5008056;28;20068;-66
2021/08/23 08:29:29;;;;;;;0.95;0.50;;;;;;;22.87;75.65;101663.84;4995872;28;20422;-65
2021/08/23 08:31:55;;;;;;;1.63;0.50;;;;;;;22.88;74.44;101670.13;4991619;28;20510;-66
2021/08/23 08:34:20;;;;;;;1.10;0.52;;;;;;;22.92;76.19;101677.09;4993388;28;20525;-66
2021/08/23 08:36:46;;;;;;;0.40;0.32;;;;;;;22.99;76.69;101674.28;4994621;28;20124;-66
2021/08/23 08:39:11;;;;;;;0.57;0.40;;;;;;;23.08;78.12;101679.25;4992467;28;20398;-66
2021/08/23 08:41:37;;;;;;;0.77;0.30;;;;;;;23.25;76.23;101686.44;5008533;28;20030;-66
2021/08/23 08:44:03;;;;;;;1.08;0.30;;;;;;;23.33;72.99;101674.19;5010362;28;20120;-66
2021/08/23 08:46:34;;;;;;;0.35;0.30;;;;;;;23.36;71.83;101683.56;5011134;28;20034;-66
2021/08/23 08:49:02;;;;;;;0.85;0.30;;;;;;;23.35;69.48;101684.75;5009722;28;20046;-67
2021/08/23 08:51:28;;;;;;;0.95;0.22;;;;;;;23.45;69.71;101692.06;5009086;28;20030;-67
2021/08/23 08:53:54;;;;;;;0.50;0.30;;;;;;;23.51;70.53;101695.91;5010645;28;20034;-66
2021/08/23 08:56:19;;;;;;;0.73;0.22;;;;;;;23.62;69.98;101693.75;4999060;28;20036;-66
2021/08/23 08:58:45;;;;;;;0.38;0.30;;;;;;;23.74;68.54;101699.44;5003301;28;20410;-66
2021/08/23 09:01:12;;;;;;;0.80;0.50;;;;;;;23.83;68.88;101696.13;5009955;28;20072;-66
2021/08/23 09:03:44;;;;;;;1.65;0.47;;;;;;;23.94;63.84;101702.25;5008330;28;20042;-66
2021/08/23 09:06:09;;;;;;;0.82;0.45;;;;;;;23.98;64.78;101709.22;4995937;28;20033;-66
2021/08/23 09:08:48;;;;;;;1.33;0.40;;;;;;;24.06;64.38;101712.69;4996230;28;20109;-67
2021/08/23 09:11:16;;;;;;;0.60;0.32;;;;;;;24.06;62.78;101707.19;4994595;28;20549;-66
2021/08/23 09:14:02;;;;;;;1.23;0.30;;;;;;;24.14;63.18;101717.63;4993576;28;20378;-67
2021/08/23 09:16:32;;;;;;;1.83;0.80;;;;;;;24.17;62.99;101714.06;4988869;28;20030;-66
2021/08/23 09:18:58;;;;;;;2.28;0.30;;;;;;;24.27;65.78;101715.03;4998179;28;20036;-67
2021/08/23 09:21:38;;;;;;;0.57;0.43;;;;;;;24.44;64.12;101708.41;4995340;28;20410;-67
2021/08/23 09:24:21;;;;;;;0.40;0.30;;;;;;;24.58;63.94;101719.16;4992359;28;20093;-66
2021/08/23 09:26:46;;;;;;;10.90;0.75;;;;;;;24.71;60.06;101714.56;5000116;28;20095;-66
2021/08/23 09:29:12;;;;;;;0.90;0.40;;;;;;;24.84;58.69;101706.41;4994496;28;20026;-66
2021/08/23 09:31:39;;;;;;;0.70;0.40;;;;;;;24.95;58.43;101709.75;4993316;28;20368;-66
2021/08/23 09:34:10;;;;;;;1.05;0.40;;;;;;;25.08;60.49;101709.84;4996625;28;20393;-67
2021/08/23 09:36:36;;;;;;;0.60;0.40;;;;;;;25.10;56.88;101710.97;4986101;28;20475;-67
2021/08/23 09:39:06;;;;;;;2.15;0.52;;;;;;;25.08;58.00;101718.91;4998375;28;20052;-65
2021/08/23 09:41:36;;;;;;;0.82;0.40;;;;;;;25.10;58.97;101705.47;4993775;28;20491;-66
2021/08/23 09:44:12;;;;;;;0.68;0.40;;;;;;;25.07;55.03;101717.34;4998661;28;20030;-66
2021/08/23 09:46:39;;;;;;;1.23;0.50;;;;;;;25.18;56.31;101720.66;5000432;28;20031;-67
2021/08/23 09:49:12;;;;;;;0.70;0.32;;;;;;;25.34;56.77;101719.91;4996069;28;20100;-66
2021/08/23 09:51:41;;;;;;;1.10;0.60;;;;;;;25.39;55.17;101720.19;4999764;28;20034;-66
2021/08/23 09:54:17;;;;;;;0.90;0.50;;;;;;;25.40;54.93;101730.00;5000257;28;20057;-67
2021/08/23 09:56:53;;;;;;;1.67;0.57;;;;;;;25.55;56.23;101731.22;4998330;28;20038;-66
2021/08/23 09:59:25;;;;;;;0.77;0.50;;;;;;;25.71;55.27;101722.16;4999624;28;20418;-66
2021/08/23 10:01:52;;;;;;;2.10;0.60;;;;;;;25.65;54.16;101730.19;4994366;28;20046;-67
2021/08/23 10:04:19;;;;;;;0.73;0.60;;;;;;;25.69;53.83;101728.13;4992742;28;20023;-66
2021/08/23 10:06:46;;;;;;;1.13;0.57;;;;;;;25.81;55.43;101723.88;4989659;28;20474;-66
2021/08/23 10:09:17;;;;;;;1.05;0.40;;;;;;;25.91;54.03;101725.59;4997531;28;20042;-67
2021/08/23 10:11:43;;;;;;;0.82;0.60;;;;;;;25.87;51.73;101736.75;5000885;28;20042;-67
2021/08/23 10:14:09;;;;;;;1.23;0.60;;;;;;;26.03;53.54;101737.94;4986018;28;20026;-66
2021/08/23 10:16:37;;;;;;;3.60;0.70;;;;;;;26.06;52.84;101735.09;4991822;28;20710;-66
2021/08/23 10:19:05;;;;;;;1.17;0.80;;;;;;;26.16;52.03;101747.84;4989470;28;20557;-66
2021/08/23 10:21:31;;;;;;;1.17;0.52;;;;;;;26.27;53.23;101739.28;4998494;28;20486;-67
2021/08/23 10:23:58;;;;;;;0.80;0.60;;;;;;;26.42;52.49;101752.25;4990779;28;20042;-66
2021/08/23 10:26:25;;;;;;;1.50;0.80;;;;;;;26.39;51.82;101749.59;5001778;28;20037;-67
2021/08/23 10:28:51;;;;;;;1.33;0.43;;;;;;;26.49;54.71;101745.78;5006107;28;20048;-66
2021/08/23 10:31:19;;;;;;;0.47;0.38;;;;;;;26.51;52.79;101752.44;4998965;28;20044;-66
2021/08/23 10:33:46;;;;;;;1.20;0.45;;;;;;;26.49;53.02;101749.31;4999035;28;20113;-66
2021/08/23 10:36:17;;;;;;;0.88;0.43;;;;;;;26.39;51.02;101742.09;4993766;28;20030;-67
2021/08/23 10:38:45;;;;;;;0.88;0.45;;;;;;;26.29;52.40;101745.13;4998260;28;20093;-66
2021/08/23 10:41:12;;;;;;;0.60;0.40;;;;;;;26.13;53.97;101745.94;4975061;28;20069;-66
2021/08/23 10:43:46;;;;;;;1.48;0.57;;;;;;;26.29;54.26;101740.41;5001806;28;20474;-66
2021/08/23 10:46:39;;;;;;;0.52;0.40;;;;;;;26.40;54.31;101746.41;5006536;28;20034;-66
2021/08/23 10:49:10;;;;;;;0.85;0.50;;;;;;;26.67;56.51;101741.28;5002619;28;20101;-67
2021/08/23 10:51:37;;;;;;;;;;;;;;;26.66;50.62;101745.28;4974249;28;20034;-67
2021/08/23 10:54:21;;;;;;;1.00;0.63;;;;;;;26.89;53.84;101737.97;5010854;28;19913;-66
2021/08/23 10:57:02;;;;;;;0.70;0.50;;;;;;;26.93;50.99;101746.91;5009650;28;20034;-66
2021/08/23 10:59:44;;;;;;;0.70;0.47;;;;;;;26.76;50.94;101751.75;4974259;28;20030;-66
2021/08/23 11:02:15;;;;;;;0.30;0.28;;;;;;;26.69;50.08;101758.22;5007256;28;20112;-66
2021/08/23 11:04:42;;;;;;;;;;;;;;;26.38;50.08;101756.34;5005005;28;20037;-67
2021/08/23 11:07:09;;;;;;;0.47;0.30;;;;;;;26.29;49.41;101754.22;5010161;28;19925;-66
2021/08/23 11:09:38;;;;;;;0.90;0.40;;;;;;;26.44;50.84;101751.84;5003633;28;20030;-66
2021/08/23 11:12:12;;;;;;;0.38;0.30;;;;;;;26.61;49.58;101740.31;5011121;28;20092;-67
2021/08/23 11:14:45;;;;;;;0.55;0.38;;;;;;;26.77;48.96;101745.78;5009983;28;20493;-66
2021/08/23 11:17:11;;;;;;;0.73;0.45;;;;;;;26.82;47.69;101760.28;5007855;28;20038;-66
2021/08/23 11:19:39;;;;;;;0.65;0.32;;;;;;;26.80;47.50;101749.66;5010713;28;20032;-66
2021/08/23 11:22:05;;;;;;;1.23;0.40;;;;;;;26.68;47.40;101753.13;4999907;28;20037;-67